Terminal Aerodrome Forecast
Issued by NWS

Home | Current Version | Previous Version | Text Only | Print | Product List | Glossary On
Versions: 1 2 3 4 5 6 7 8 9 10 11 12
283
FTUS46 KHNX 061730
TAFBFL
TAF
KBFL 061730Z 0618/0718 30006KT P6SM SCT015 BKN025
      TEMPO 0700/0704 -SHRA BKN015
     FM070400 33008KT P6SM SCT015 BKN025 PROB30 0706/0712 -SHRA
      BKN015
     FM071200 VRB03KT P6SM SCT025 OVC050 PROB30 0712/0718 -SHRA
      BKN025=

USA.gov is the U.S. government's official web portal to all federal, state and local government web resources and services.